createdAt,value
2018-03-19T00:01:43.174Z,-0.28
2018-03-19T00:04:46.383Z,-0.31
2018-03-19T00:07:49.646Z,-0.33
2018-03-19T00:10:52.875Z,-0.31
2018-03-19T00:13:56.382Z,-0.33
2018-03-19T00:16:59.649Z,-0.33
2018-03-19T00:20:02.915Z,-0.37
2018-03-19T00:23:06.198Z,-0.39
2018-03-19T00:26:10.650Z,-0.37
2018-03-19T00:29:13.928Z,-0.37
2018-03-19T00:32:17.390Z,-0.43
2018-03-19T00:35:20.546Z,-0.41
2018-03-19T00:38:23.790Z,-0.48
2018-03-19T00:41:27.078Z,-0.43
2018-03-19T00:44:30.342Z,-0.46
2018-03-19T00:47:33.877Z,-0.47
2018-03-19T00:50:37.143Z,-0.47
2018-03-19T00:53:40.376Z,-0.49
2018-03-19T00:56:43.567Z,-0.48
2018-03-19T00:59:46.853Z,-0.47
2018-03-19T01:02:50.126Z,-0.48
2018-03-19T01:05:53.655Z,-0.56
2018-03-19T01:08:56.981Z,-0.52
2018-03-19T01:12:00.207Z,-0.56
2018-03-19T01:15:03.544Z,-0.50
2018-03-19T01:18:07.399Z,-0.55
2018-03-19T01:21:10.715Z,-0.49
2018-03-19T01:24:13.935Z,-0.51
2018-03-19T01:27:17.241Z,-0.50
2018-03-19T01:30:20.512Z,-0.48
2018-03-19T01:33:23.812Z,-0.53
2018-03-19T01:36:27.138Z,-0.52
2018-03-19T01:39:30.440Z,-0.60
2018-03-19T01:42:33.806Z,-0.57
2018-03-19T01:45:37.075Z,-0.55
2018-03-19T01:48:40.393Z,-0.58
2018-03-19T01:51:43.593Z,-0.57
2018-03-19T01:54:46.798Z,-0.54
2018-03-19T01:57:50.005Z,-0.55
2018-03-19T02:00:53.205Z,-0.63
2018-03-19T02:03:56.401Z,-0.63
2018-03-19T02:06:59.581Z,-0.67
2018-03-19T02:10:02.792Z,-0.70
2018-03-19T02:13:06.057Z,-0.67
2018-03-19T02:16:09.745Z,-0.66
2018-03-19T02:19:12.922Z,-0.68
2018-03-19T02:22:16.095Z,-0.67
2018-03-19T02:25:19.619Z,-0.67
2018-03-19T02:28:22.845Z,-0.66
2018-03-19T02:31:26.199Z,-0.74
2018-03-19T02:34:29.410Z,-0.67
2018-03-19T02:37:32.676Z,-0.64
2018-03-19T02:40:35.819Z,-0.64
2018-03-19T02:43:39.042Z,-0.67
2018-03-19T02:46:42.339Z,-0.67
2018-03-19T02:49:45.518Z,-0.75
2018-03-19T02:52:48.726Z,-0.70
2018-03-19T02:55:51.928Z,-0.67
2018-03-19T02:58:55.126Z,-0.70
2018-03-19T03:01:58.673Z,-0.72
2018-03-19T03:05:01.947Z,-0.72
2018-03-19T03:08:05.134Z,-0.75
2018-03-19T03:11:08.330Z,-0.76
2018-03-19T03:14:11.662Z,-0.71
2018-03-19T03:17:14.935Z,-0.76
2018-03-19T03:20:18.075Z,-0.75
2018-03-19T03:23:21.249Z,-0.71
2018-03-19T03:26:24.390Z,-0.74
2018-03-19T03:29:27.555Z,-0.71
2018-03-19T03:32:30.781Z,-0.73
2018-03-19T03:35:33.972Z,-0.72
2018-03-19T03:38:37.240Z,-0.74
2018-03-19T03:41:40.502Z,-0.77
2018-03-19T03:44:43.669Z,-0.75
2018-03-19T03:47:46.827Z,-0.70
2018-03-19T03:50:49.980Z,-0.76
2018-03-19T03:53:53.154Z,-0.79
2018-03-19T03:56:56.723Z,-0.79
2018-03-19T03:59:59.859Z,-0.81
2018-03-19T04:03:03.078Z,-0.86
2018-03-19T04:06:06.306Z,-0.80
2018-03-19T04:09:09.558Z,-0.88
2018-03-19T04:12:12.755Z,-0.86
2018-03-19T04:15:15.935Z,-0.86
2018-03-19T04:18:19.138Z,-0.90
2018-03-19T04:21:22.335Z,-0.86
2018-03-19T04:24:25.504Z,-0.84
2018-03-19T04:27:29.032Z,-0.86
2018-03-19T04:30:32.326Z,-0.79
2018-03-19T04:33:35.520Z,-0.83
2018-03-19T04:36:38.726Z,-0.88
2018-03-19T04:39:42.002Z,-0.86
2018-03-19T04:42:45.148Z,-0.85
2018-03-19T04:45:48.451Z,-0.78
2018-03-19T04:48:51.667Z,-0.81
2018-03-19T04:51:54.939Z,-0.74
2018-03-19T04:54:58.144Z,-0.80
2018-03-19T04:58:01.425Z,-0.86
2018-03-19T05:01:04.617Z,-0.83
2018-03-19T05:04:07.801Z,-0.78
2018-03-19T05:07:11.112Z,-0.76
2018-03-19T05:10:14.289Z,-0.80
2018-03-19T05:13:17.430Z,-0.88
2018-03-19T05:16:21.977Z,-0.89
2018-03-19T05:19:25.195Z,-0.85
2018-03-19T05:22:28.436Z,-0.84
2018-03-19T05:25:31.685Z,-0.87
2018-03-19T05:28:34.994Z,-0.83
2018-03-19T05:31:38.307Z,-0.82
2018-03-19T05:34:41.726Z,-0.81
2018-03-19T05:37:44.942Z,-0.81
2018-03-19T05:40:48.228Z,-0.75
2018-03-19T05:43:51.536Z,-0.79
2018-03-19T05:46:54.892Z,-0.75
2018-03-19T05:49:58.774Z,-0.85
2018-03-19T05:53:01.987Z,-0.92
2018-03-19T05:56:05.190Z,-0.94
2018-03-19T05:59:08.389Z,-0.95
2018-03-19T06:02:12.423Z,-0.88
2018-03-19T06:05:15.599Z,-0.86
2018-03-19T06:08:18.805Z,-0.82
2018-03-19T06:11:22.038Z,-0.81
2018-03-19T06:14:25.284Z,-0.89
2018-03-19T06:17:28.541Z,-0.86
2018-03-19T06:20:31.739Z,-0.83
2018-03-19T06:23:34.890Z,-0.82
2018-03-19T06:26:38.163Z,-0.80
2018-03-19T06:29:41.457Z,-0.66
2018-03-19T06:32:44.699Z,-0.72
2018-03-19T06:35:47.958Z,-0.67
2018-03-19T06:38:51.213Z,-0.64
2018-03-19T06:41:54.378Z,-0.72
2018-03-19T06:44:57.644Z,-0.74
2018-03-19T06:48:00.856Z,-0.69
2018-03-19T06:51:04.173Z,-0.66
2018-03-19T06:54:07.456Z,-0.75
2018-03-19T06:57:10.753Z,-0.77
2018-03-19T07:00:13.940Z,-0.65
2018-03-19T07:03:17.138Z,-0.63
2018-03-19T07:06:20.366Z,-0.61
2018-03-19T07:09:23.524Z,-0.73
2018-03-19T07:12:26.668Z,-0.76
2018-03-19T07:15:29.910Z,-0.71
2018-03-19T07:18:33.112Z,-0.68
2018-03-19T07:21:36.284Z,-0.61
2018-03-19T07:24:39.502Z,-0.64
2018-03-19T07:27:42.695Z,-0.64
2018-03-19T07:30:45.893Z,-0.65
2018-03-19T07:33:49.111Z,-0.54
2018-03-19T07:36:52.302Z,-0.47
2018-03-19T07:39:55.590Z,-0.48
2018-03-19T07:42:58.813Z,-0.32
2018-03-19T07:46:02.006Z,-0.31
2018-03-19T07:49:05.365Z,-0.30
2018-03-19T07:52:08.660Z,-0.27
2018-03-19T07:55:11.841Z,-0.25
2018-03-19T07:58:15.156Z,-0.29
2018-03-19T08:01:18.422Z,-0.25
2018-03-19T08:04:21.775Z,-0.10
2018-03-19T08:07:25.039Z,-0.09
2018-03-19T08:10:28.334Z,-0.10
2018-03-19T08:13:31.660Z,-0.05
2018-03-19T08:16:34.986Z,-0.05
2018-03-19T08:19:38.282Z,-0.10
2018-03-19T08:22:41.596Z,0.00
2018-03-19T08:25:44.847Z,-0.05
2018-03-19T08:28:48.114Z,0.04
2018-03-19T08:31:51.412Z,0.12
2018-03-19T08:34:54.733Z,0.07
2018-03-19T08:37:57.934Z,0.05
2018-03-19T08:41:01.250Z,-0.03
2018-03-19T08:44:05.529Z,0.10
2018-03-19T08:47:09.268Z,0.23
2018-03-19T08:50:12.563Z,0.24
2018-03-19T08:53:15.825Z,0.15
2018-03-19T08:56:19.158Z,0.10
2018-03-19T08:59:22.421Z,0.26
2018-03-19T09:02:25.743Z,0.20
2018-03-19T09:05:29.035Z,0.21
2018-03-19T09:08:33.172Z,0.25
2018-03-19T09:11:36.430Z,0.34
2018-03-19T09:14:39.785Z,0.27
2018-03-19T09:17:43.063Z,0.39
2018-03-19T09:20:46.345Z,0.32
2018-03-19T09:23:49.683Z,0.49
2018-03-19T09:26:52.943Z,0.35
2018-03-19T09:29:56.246Z,0.34
2018-03-19T09:32:59.535Z,0.51
2018-03-19T09:36:02.773Z,0.46
2018-03-19T09:39:05.994Z,0.42
2018-03-19T09:42:09.223Z,0.51
2018-03-19T09:45:12.546Z,0.52
2018-03-19T09:48:15.850Z,0.47
2018-03-19T09:51:20.135Z,0.36
2018-03-19T09:54:23.438Z,0.56
2018-03-19T09:57:26.737Z,0.54
2018-03-19T10:00:29.856Z,0.58
2018-03-19T10:03:33.231Z,0.67
2018-03-19T10:06:36.793Z,0.71
2018-03-19T10:09:39.979Z,0.79
2018-03-19T10:12:43.284Z,0.98
2018-03-19T10:15:46.676Z,0.93
2018-03-19T10:18:49.921Z,0.99
2018-03-19T10:21:53.214Z,1.08
2018-03-19T10:24:56.442Z,1.11
2018-03-19T10:27:59.623Z,1.15
2018-03-19T10:31:02.848Z,1.09
2018-03-19T10:34:06.115Z,1.12
2018-03-19T10:37:09.407Z,1.09
2018-03-19T10:40:12.670Z,1.17
2018-03-19T10:43:15.919Z,1.11
2018-03-19T10:46:19.220Z,1.31
2018-03-19T10:49:22.528Z,1.34
2018-03-19T10:52:25.824Z,1.34
2018-03-19T10:55:29.024Z,1.25
2018-03-19T10:58:32.277Z,1.19
2018-03-19T11:01:39.751Z,1.34
2018-03-19T11:04:47.130Z,1.36
2018-03-19T11:07:54.575Z,1.30
2018-03-19T11:10:57.903Z,1.48
2018-03-19T11:14:01.139Z,1.49
2018-03-19T11:17:04.470Z,1.52
2018-03-19T11:20:07.582Z,1.52
2018-03-19T11:23:10.875Z,1.50
2018-03-19T11:26:14.081Z,1.58
2018-03-19T11:29:17.369Z,1.72
2018-03-19T11:32:20.657Z,1.82
2018-03-19T11:35:24.076Z,1.99
2018-03-19T11:38:27.270Z,2.17
2018-03-19T11:41:30.609Z,2.15
2018-03-19T11:44:33.852Z,2.13
2018-03-19T11:47:37.075Z,2.14
2018-03-19T11:50:41.810Z,2.32
2018-03-19T11:53:44.983Z,2.34
2018-03-19T11:56:48.171Z,2.29
2018-03-19T11:59:51.359Z,2.24
2018-03-19T12:02:54.550Z,2.42
2018-03-19T12:05:57.743Z,2.37
2018-03-19T12:09:00.960Z,2.44
2018-03-19T12:12:04.258Z,2.42
2018-03-19T12:15:07.623Z,2.42
2018-03-19T12:18:10.858Z,2.43
2018-03-19T12:21:14.166Z,2.43
2018-03-19T12:24:17.418Z,2.43
2018-03-19T12:27:20.784Z,2.52
2018-03-19T12:30:24.042Z,2.66
2018-03-19T12:33:27.305Z,2.78
2018-03-19T12:36:30.619Z,2.70
2018-03-19T12:39:34.015Z,2.87
2018-03-19T12:42:37.339Z,2.97
2018-03-19T12:45:40.614Z,2.99
2018-03-19T12:48:43.948Z,2.94
2018-03-19T12:51:47.350Z,2.70
2018-03-19T12:54:50.641Z,2.74
2018-03-19T12:57:54.059Z,2.86
2018-03-19T13:00:57.316Z,2.71
2018-03-19T13:04:00.614Z,2.75
2018-03-19T13:07:03.872Z,2.57
2018-03-19T13:10:07.131Z,2.77
2018-03-19T13:13:10.399Z,2.72
2018-03-19T13:16:13.689Z,2.77
2018-03-19T13:19:17.010Z,2.88
2018-03-19T13:22:20.227Z,2.72
2018-03-19T13:25:23.484Z,2.61
2018-03-19T13:28:26.729Z,2.62
2018-03-19T13:31:29.967Z,2.48
2018-03-19T13:34:33.383Z,2.31
2018-03-19T13:37:36.624Z,2.24
2018-03-19T13:40:39.885Z,2.37
2018-03-19T13:43:43.186Z,2.62
2018-03-19T13:46:46.351Z,2.79
2018-03-19T13:49:49.515Z,2.66
2018-03-19T13:52:52.750Z,2.65
2018-03-19T13:55:56.113Z,2.63
2018-03-19T13:58:59.386Z,2.62
2018-03-19T14:02:02.666Z,2.20
2018-03-19T14:05:05.983Z,2.36
2018-03-19T14:08:09.253Z,2.66
2018-03-19T14:11:12.534Z,2.72
2018-03-19T14:14:15.854Z,2.65
2018-03-19T14:17:19.171Z,2.61
2018-03-19T14:20:22.441Z,2.75
2018-03-19T14:23:25.767Z,2.87
2018-03-19T14:26:29.065Z,2.78
2018-03-19T14:29:33.373Z,2.68
2018-03-19T14:32:36.659Z,2.67
2018-03-19T14:35:40.648Z,2.82
2018-03-19T14:38:44.014Z,2.58
2018-03-19T14:41:47.409Z,2.47
2018-03-19T14:44:50.605Z,2.48
2018-03-19T14:47:54.238Z,2.53
2018-03-19T14:50:57.470Z,2.70
2018-03-19T14:54:00.831Z,2.83
2018-03-19T14:57:04.207Z,2.93
2018-03-19T15:00:07.441Z,2.83
2018-03-19T15:03:10.799Z,2.87
2018-03-19T15:06:14.077Z,2.94
2018-03-19T15:09:17.358Z,2.81
2018-03-19T15:12:20.666Z,2.66
2018-03-19T15:15:23.957Z,2.74
2018-03-19T15:18:27.252Z,2.70
2018-03-19T15:21:30.574Z,2.73
2018-03-19T15:24:33.911Z,2.78
2018-03-19T15:27:37.201Z,2.86
2018-03-19T15:30:40.464Z,2.88
2018-03-19T15:33:43.983Z,2.86
2018-03-19T15:36:47.290Z,2.72
2018-03-19T15:39:50.615Z,2.71
2018-03-19T15:42:53.907Z,2.73
2018-03-19T15:45:57.193Z,2.65
2018-03-19T15:49:00.418Z,2.73
2018-03-19T15:52:03.696Z,2.72
2018-03-19T15:55:06.874Z,2.72
2018-03-19T15:58:10.198Z,2.75
2018-03-19T16:01:13.669Z,2.71
2018-03-19T16:04:16.932Z,2.72
2018-03-19T16:07:20.390Z,2.73
2018-03-19T16:10:23.646Z,2.76
2018-03-19T16:13:26.850Z,2.80
2018-03-19T16:16:30.158Z,2.86
2018-03-19T16:19:33.377Z,2.86
2018-03-19T16:22:36.638Z,2.83
2018-03-19T16:25:40.184Z,2.93
2018-03-19T16:28:43.441Z,3.00
2018-03-19T16:31:46.716Z,3.02
2018-03-19T16:34:50.023Z,2.88
2018-03-19T16:37:53.354Z,3.02
2018-03-19T16:40:56.600Z,3.08
2018-03-19T16:43:59.954Z,3.07
2018-03-19T16:54:08.866Z,3.11
2018-03-19T16:57:12.092Z,3.09
2018-03-19T17:00:15.351Z,3.06
2018-03-19T17:03:18.517Z,3.16
2018-03-19T17:06:25.876Z,3.24
2018-03-19T17:09:29.188Z,3.20
2018-03-19T17:12:39.451Z,3.00
2018-03-19T17:15:46.460Z,2.92
2018-03-19T17:18:49.628Z,3.05
2018-03-19T17:21:57.124Z,3.29
2018-03-19T17:25:01.348Z,3.24
2018-03-19T17:28:04.615Z,3.21
2018-03-19T17:31:18.100Z,3.19
2018-03-19T17:34:28.825Z,3.20
2018-03-19T17:37:31.968Z,3.26
2018-03-19T17:40:36.056Z,3.05
2018-03-19T17:43:39.256Z,2.95
2018-03-19T17:46:42.485Z,3.01
2018-03-19T17:49:46.683Z,3.06
2018-03-19T17:53:00.861Z,2.89
2018-03-19T17:56:04.107Z,3.09
2018-03-19T17:59:08.368Z,3.11
2018-03-19T18:02:11.491Z,3.06
2018-03-19T18:05:17.736Z,2.96
2018-03-19T18:08:21.000Z,2.91
2018-03-19T18:11:30.309Z,2.79
2018-03-19T18:14:37.565Z,2.72
2018-03-19T18:17:40.976Z,2.62
2018-03-19T18:20:47.332Z,2.67
2018-03-19T18:23:56.383Z,2.69
2018-03-19T18:26:59.918Z,2.47
2018-03-19T18:30:03.229Z,2.53
2018-03-19T18:33:06.461Z,2.45
2018-03-19T18:36:09.817Z,2.41
2018-03-19T18:39:16.909Z,2.51
2018-03-19T18:42:22.238Z,2.54
2018-03-19T18:45:25.593Z,2.73
2018-03-19T18:48:31.938Z,2.81
2018-03-19T18:51:36.303Z,2.68
2018-03-19T18:54:41.673Z,2.77
2018-03-19T18:57:44.939Z,2.81
2018-03-19T19:00:55.725Z,2.81
2018-03-19T19:04:03.476Z,2.77
2018-03-19T19:07:07.703Z,2.78
2018-03-19T19:10:10.894Z,2.73
2018-03-19T19:13:19.615Z,2.70
2018-03-19T19:16:41.307Z,2.73
2018-03-19T19:19:46.478Z,2.74
2018-03-19T19:22:49.711Z,2.74
2018-03-19T19:25:52.936Z,2.77
2018-03-19T19:28:57.056Z,2.65
2018-03-19T19:32:07.644Z,2.62
2018-03-19T19:35:14.944Z,2.58
2018-03-19T19:38:23.770Z,2.64
2018-03-19T19:41:30.463Z,2.62
2018-03-19T19:44:37.373Z,2.65
2018-03-19T19:47:40.671Z,2.58
2018-03-19T19:50:44.906Z,2.62
2018-03-19T19:53:48.210Z,2.58
2018-03-19T19:56:51.597Z,2.53
2018-03-19T19:59:54.806Z,2.44
2018-03-19T20:02:58.037Z,2.45
2018-03-19T20:06:07.020Z,2.50
2018-03-19T20:09:13.360Z,2.46
2018-03-19T20:12:16.903Z,2.43
2018-03-19T20:15:22.224Z,2.43
2018-03-19T20:18:28.713Z,2.43
2018-03-19T20:21:32.092Z,2.37
2018-03-19T20:24:39.312Z,2.32
2018-03-19T20:27:43.572Z,2.27
2018-03-19T20:30:46.812Z,2.18
2018-03-19T20:33:50.003Z,2.17
2018-03-19T20:37:04.372Z,2.12
2018-03-19T20:40:07.605Z,2.11
2018-03-19T20:43:12.964Z,1.99
2018-03-19T20:46:16.373Z,1.85
2018-03-19T20:49:19.602Z,1.76
2018-03-19T20:52:26.552Z,1.72
2018-03-19T20:55:33.774Z,1.69
2018-03-19T20:58:49.138Z,1.61
2018-03-19T21:01:52.695Z,1.46
2018-03-19T21:04:55.901Z,1.45
2018-03-19T21:08:02.940Z,1.31
2018-03-19T21:11:06.116Z,1.29
2018-03-19T21:14:11.314Z,1.37
2018-03-19T21:17:14.525Z,1.27
2018-03-19T21:20:17.960Z,1.25
2018-03-19T21:23:22.917Z,1.32
2018-03-19T21:26:26.213Z,1.27
2018-03-19T21:29:29.371Z,1.28
2018-03-19T21:32:37.484Z,1.22
2018-03-19T21:35:40.786Z,1.08
2018-03-19T21:38:44.004Z,0.96
2018-03-19T21:41:48.128Z,0.93
2018-03-19T21:44:57.543Z,0.88
2018-03-19T21:48:00.819Z,0.88
2018-03-19T21:51:04.058Z,0.88
2018-03-19T21:54:07.260Z,0.82
2018-03-19T21:57:12.483Z,0.77
2018-03-19T22:00:17.700Z,0.82
2018-03-19T22:03:22.864Z,0.94
2018-03-19T22:06:27.156Z,0.92
2018-03-19T22:09:30.455Z,0.83
2018-03-19T22:12:33.759Z,0.75
2018-03-19T22:15:37.016Z,0.65
2018-03-19T22:18:40.180Z,0.66
2018-03-19T22:21:43.361Z,0.61
2018-03-19T22:24:52.364Z,0.61
2018-03-19T22:27:55.537Z,0.59
2018-03-19T22:30:58.816Z,0.56
2018-03-19T22:34:02.055Z,0.46
2018-03-19T22:37:05.256Z,0.38
2018-03-19T22:40:08.471Z,0.40
2018-03-19T22:43:11.698Z,0.49
2018-03-19T22:46:14.892Z,0.51
2018-03-19T22:49:19.065Z,0.43
2018-03-19T22:52:23.257Z,0.41
2018-03-19T22:55:32.181Z,0.31
2018-03-19T22:58:36.349Z,0.34
2018-03-19T23:01:40.588Z,0.32
2018-03-19T23:04:56.649Z,0.29
2018-03-19T23:08:00.230Z,0.29
2018-03-19T23:11:03.372Z,0.29
2018-03-19T23:14:07.513Z,0.31
2018-03-19T23:17:12.570Z,0.35
2018-03-19T23:20:15.889Z,0.27
2018-03-19T23:23:35.963Z,0.28
2018-03-19T23:26:41.132Z,0.13
2018-03-19T23:29:46.306Z,0.09
2018-03-19T23:32:49.571Z,0.10
2018-03-19T23:35:52.837Z,0.01
2018-03-19T23:39:00.369Z,0.05
2018-03-19T23:42:03.642Z,0.13
2018-03-19T23:45:13.423Z,0.13
2018-03-19T23:48:16.643Z,0.01
2018-03-19T23:51:23.876Z,-0.06
2018-03-19T23:54:29.448Z,-0.12
